Baltic, SD

8:42 PM CDT on September 30, 2014 (GMT -0500)
Pipestone Municipal | Change Station
CLOSE
Current Station
Airport
Location: Pipestone,
Elevation: 1736 ft
Nearby Weather Stations

Elev 1736 ft 43.98 °N, 96.30 °W | Updated 28 minutes ago

Overcast
Overcast
63 °F
Feels Like 63 °F
N
17
Wind Variable Wind from South
Gusts 24 mph

Today
High -- | Low -- °F
--% Chance of Precip.
Yesterday
High -- | Low -- °F
Precip. -- in
7:23 AM 7:09 PM
Waxing Crescent, 42% visible
Pressure 29.76 in
Visibility 10.0 miles
Clouds Mostly Cloudy 1600 ft
Mostly Cloudy 2100 ft
Overcast 2900 ft
Dew Point 57 °F
Humidity 82%
Rainfall 0.02 in
Snow Depth 0 in , 1 in
UV 0 out of 12
Pollen 2.40 out of 12
Air Quality Not available.
Flu Activity Not available.
METAR KPQN 010114Z AUTO 17015G21KT 10SM BKN016 BKN021 OVC029 17/14 A2976 RMK AO2

More Conditions Fewer Conditions

Pressure 29.76 in
Visibility 10.0 miles
Clouds Mostly Cloudy 1600 ft
Mostly Cloudy 2100 ft
Overcast 2900 ft
Dew Point 57 °F
Humidity 82%
Rainfall 0.02 in
Snow Depth 0 in , 1 in
UV 0 out of 12
Pollen 2.40 out of 12
Air Quality Not available.
Flu Activity Not available.
METAR KPQN 010114Z AUTO 17015G21KT 10SM BKN016 BKN021 OVC029 17/14 A2976 RMK AO2

More Conditions Fewer Conditions

10-Day Weather Forecast

Almanac

Astronomy

Sep. 30, 2014 Rise Set
Actual Time 7:23 AM CDT 7:09 PM CDT
Civil Twilight 6:54 AM CDT 7:38 PM CDT
Nautical Twilight 6:21 AM CDT 8:11 PM CDT
Astronomical Twilight 5:47 AM CDT 8:45 PM CDT
Moon 1:41 PM CDT (9/30) 11:32 PM CDT (9/30)
Length of Visible Light 12h 43m
Length of Day
11h 46m
Tomorrow will be 2m 59s shorter.
Waxing Crescent, 42% of the Moon is Illuminated
Today
Waxing Crescent
Oct 1
First Quarter
Oct 8
Full
Oct 15
Last Quarter
Oct 23
New

Today's Extremes

State Highs State Lows

Community

WunderPhotos

Upload Photos

1,757,821 photos uploaded!

Nearby

Snow Depth

Station Depth Elevation
North Rapid Creek 0 in 6130 ft
Blind Park 1 in 6890 ft

Earthquake Activity

City Distance Mag. Time & Date
No recent earthquake activity has been reported nearby.
Minimum magnitude displayed is 2.5.

Coastal Water Temperatures

Place Temperature
No Stations Reporting

Nearby Weather Stations